createdAt,value
2022-12-11T00:00:26.767Z,101081.72
2022-12-11T00:02:53.320Z,101082.69
2022-12-11T00:05:19.907Z,101082.19
2022-12-11T00:07:46.457Z,101080.50
2022-12-11T00:10:13.026Z,101075.16
2022-12-11T00:12:39.523Z,101074.84
2022-12-11T00:15:06.506Z,101067.13
2022-12-11T00:17:33.004Z,101070.63
2022-12-11T00:19:59.476Z,101072.16
2022-12-11T00:22:25.962Z,101069.78
2022-12-11T00:24:52.510Z,101064.72
2022-12-11T00:27:19.043Z,101076.72
2022-12-11T00:29:45.671Z,101069.84
2022-12-11T00:32:12.283Z,101065.88
2022-12-11T00:34:38.914Z,101072.09
2022-12-11T00:37:05.530Z,101069.41
2022-12-11T00:39:32.071Z,101072.09
2022-12-11T00:41:58.682Z,101073.78
2022-12-11T00:44:25.263Z,101069.69
2022-12-11T00:46:51.801Z,101066.88
2022-12-11T00:49:18.323Z,101071.22
2022-12-11T00:51:44.892Z,101059.69
2022-12-11T00:54:11.404Z,101071.22
2022-12-11T00:56:37.975Z,101071.22
2022-12-11T00:59:04.546Z,101076.44
2022-12-11T01:01:31.146Z,101075.44
2022-12-11T01:03:57.679Z,101071.09
2022-12-11T01:06:26.389Z,101079.13
2022-12-11T01:09:13.513Z,101076.19
2022-12-11T01:11:41.768Z,101079.72
2022-12-11T01:14:09.434Z,101078.56
2022-12-11T01:16:36.110Z,101081.09
2022-12-11T01:19:03.390Z,101072.09
2022-12-11T01:21:30.336Z,101071.38
2022-12-11T01:23:56.875Z,101074.38
2022-12-11T01:26:23.627Z,101079.72
2022-12-11T01:28:51.991Z,101073.81
2022-12-11T01:31:20.227Z,101074.41
2022-12-11T01:33:46.813Z,101070.19
2022-12-11T01:36:23.395Z,101074.56
2022-12-11T01:38:50.156Z,101075.25
2022-12-11T01:41:18.310Z,101077.09
2022-12-11T01:44:14.627Z,101071.19
2022-12-11T01:46:41.498Z,101068.50
2022-12-11T01:49:11.587Z,101081.19
2022-12-11T01:51:48.944Z,101081.59
2022-12-11T01:54:19.042Z,101085.84
2022-12-11T01:56:48.000Z,101072.78
2022-12-11T01:59:17.855Z,101069.41
2022-12-11T02:01:57.054Z,101071.66
2022-12-11T02:04:24.309Z,101064.94
2022-12-11T02:06:52.322Z,101073.94
2022-12-11T02:09:46.766Z,101069.13
2022-12-11T02:12:19.164Z,101070.50
2022-12-11T02:15:25.477Z,101077.53
2022-12-11T02:18:00.742Z,101074.88
2022-12-11T02:20:43.916Z,101075.53
2022-12-11T02:23:13.204Z,101070.91
2022-12-11T02:26:07.210Z,101070.19
2022-12-11T02:28:38.553Z,101073.56
2022-12-11T02:31:26.685Z,101072.72
2022-12-11T02:34:07.544Z,101071.19
2022-12-11T02:36:38.707Z,101075.31
2022-12-11T02:39:07.682Z,101077.97
2022-12-11T02:41:35.166Z,101076.13
2022-12-11T02:44:04.149Z,101075.47
2022-12-11T02:46:34.377Z,101067.13
2022-12-11T02:49:05.070Z,101059.81
2022-12-11T02:51:36.141Z,101066.00
2022-12-11T02:54:04.385Z,101061.78
2022-12-11T02:56:38.292Z,101057.59
2022-12-11T02:59:11.219Z,101059.59
2022-12-11T03:01:37.870Z,101060.00
2022-12-11T03:04:04.550Z,101065.50
2022-12-11T03:06:44.388Z,101061.53
2022-12-11T03:09:10.941Z,101061.69
2022-12-11T03:11:37.458Z,101055.06
2022-12-11T03:14:04.299Z,101056.03
2022-12-11T03:16:41.679Z,101055.22
2022-12-11T03:19:39.836Z,101057.34
2022-12-11T03:22:19.024Z,101057.34
2022-12-11T03:24:53.186Z,101054.28
2022-12-11T03:27:37.949Z,101050.63
2022-12-11T03:30:11.759Z,101052.31
2022-12-11T03:32:50.398Z,101064.25
2022-12-11T03:35:26.398Z,101057.09
2022-12-11T03:37:54.953Z,101056.56
2022-12-11T03:40:23.802Z,101057.25
2022-12-11T03:42:52.703Z,101051.44
2022-12-11T03:45:21.074Z,101048.78
2022-12-11T03:47:49.592Z,101053.84
2022-12-11T03:50:19.146Z,101052.19
2022-12-11T03:52:47.706Z,101046.03
2022-12-11T03:55:17.483Z,101052.03
2022-12-11T03:57:44.193Z,101046.16
2022-12-11T04:00:15.379Z,101043.63
2022-12-11T04:02:42.518Z,101050.25
2022-12-11T04:05:10.670Z,101056.44
2022-12-11T04:07:37.875Z,101050.81
2022-12-11T04:10:05.313Z,101053.47
2022-12-11T04:12:31.831Z,101050.97
2022-12-11T04:15:04.157Z,101051.78
2022-12-11T04:17:54.251Z,101049.94
2022-12-11T04:20:40.163Z,101054.63
2022-12-11T04:23:30.554Z,101043.53
2022-12-11T04:26:08.562Z,101045.66
2022-12-11T04:28:35.925Z,101040.31
2022-12-11T04:31:03.137Z,101042.00
2022-12-11T04:33:29.924Z,101038.34
2022-12-11T04:36:00.486Z,101041.00
2022-12-11T04:38:27.205Z,101032.13
2022-12-11T04:41:01.416Z,101041.69
2022-12-11T04:43:28.230Z,101034.97
2022-12-11T04:46:22.394Z,101042.44
2022-12-11T04:48:55.373Z,101038.78
2022-12-11T04:51:23.623Z,101045.81
2022-12-11T04:53:50.157Z,101035.94
2022-12-11T04:56:17.101Z,101032.59
2022-12-11T04:58:44.929Z,101035.13
2022-12-11T05:01:14.241Z,101047.63
2022-12-11T05:03:41.686Z,101048.47
2022-12-11T05:06:09.219Z,101039.31
2022-12-11T05:08:37.573Z,101036.66
2022-12-11T05:11:08.078Z,101039.31
2022-12-11T05:13:34.660Z,101036.25
2022-12-11T05:16:04.518Z,101042.56
2022-12-11T05:18:31.152Z,101040.63
2022-12-11T05:20:59.373Z,101039.59
2022-12-11T05:23:26.425Z,101044.28
2022-12-11T05:25:58.394Z,101037.94
2022-12-11T05:28:26.347Z,101042.56
2022-12-11T05:31:17.671Z,101041.59
2022-12-11T05:33:45.225Z,101044.28
2022-12-11T05:36:32.741Z,101035.28
2022-12-11T05:39:00.124Z,101044.66
2022-12-11T05:41:29.312Z,101044.94
2022-12-11T05:43:56.312Z,101045.81
2022-12-11T05:46:26.206Z,101037.63
2022-12-11T05:48:56.165Z,101045.41
2022-12-11T05:51:23.525Z,101050.28
2022-12-11T05:53:51.274Z,101045.97
2022-12-11T05:56:24.079Z,101043.28
2022-12-11T05:58:51.161Z,101040.63
2022-12-11T06:01:24.111Z,101036.81
2022-12-11T06:03:50.768Z,101034.97
2022-12-11T06:06:17.853Z,101032.00
2022-12-11T06:08:44.367Z,101036.81
2022-12-11T06:11:15.637Z,101039.47
2022-12-11T06:13:43.948Z,101036.94
2022-12-11T06:16:10.862Z,101042.97
2022-12-11T06:18:39.014Z,101043.41
2022-12-11T06:21:15.112Z,101047.75
2022-12-11T06:23:42.333Z,101048.75
2022-12-11T06:26:10.203Z,101043.88
2022-12-11T06:28:37.053Z,101051.03
2022-12-11T06:31:04.566Z,101044.28
2022-12-11T06:33:31.875Z,101038.81
2022-12-11T06:36:05.445Z,101041.19
2022-12-11T06:38:32.614Z,101035.16
2022-12-11T06:41:02.707Z,101035.16
2022-12-11T06:43:29.214Z,101028.50
2022-12-11T06:45:59.248Z,101037.94
2022-12-11T06:48:30.088Z,101027.38
2022-12-11T06:50:56.614Z,101024.31
2022-12-11T06:53:23.634Z,101027.72
2022-12-11T06:55:50.577Z,101026.59
2022-12-11T06:58:17.093Z,101030.78
2022-12-11T07:00:43.752Z,101038.53
2022-12-11T07:03:10.430Z,101034.72
2022-12-11T07:05:36.983Z,101040.63
2022-12-11T07:08:03.549Z,101040.22
2022-12-11T07:10:30.096Z,101035.16
2022-12-11T07:12:56.644Z,101038.81
2022-12-11T07:15:23.159Z,101045.44
2022-12-11T07:17:49.892Z,101047.94
2022-12-11T07:20:17.327Z,101048.66
2022-12-11T07:22:46.638Z,101058.06
2022-12-11T07:25:13.832Z,101053.16
2022-12-11T07:27:41.596Z,101058.22
2022-12-11T07:30:09.269Z,101067.94
2022-12-11T07:32:35.863Z,101062.75
2022-12-11T07:35:02.766Z,101067.66
2022-12-11T07:37:29.295Z,101065.56
2022-12-11T07:39:55.974Z,101068.13
2022-12-11T07:42:22.545Z,101074.59
2022-12-11T07:44:49.069Z,101068.59
2022-12-11T07:47:15.909Z,101068.84
2022-12-11T07:49:42.504Z,101070.84
2022-12-11T07:52:09.300Z,101069.72
2022-12-11T07:54:35.966Z,101070.00
2022-12-11T07:57:02.667Z,101066.34
2022-12-11T07:59:29.209Z,101068.59
2022-12-11T08:01:55.814Z,101073.94
2022-12-11T08:04:22.327Z,101068.06
2022-12-11T08:06:49.240Z,101065.53
2022-12-11T08:09:21.078Z,101074.81
2022-12-11T08:11:51.789Z,101073.09
2022-12-11T08:14:19.595Z,101075.09
2022-12-11T08:16:46.297Z,101076.75
2022-12-11T08:19:13.213Z,101077.75
2022-12-11T08:21:40.436Z,101075.09
2022-12-11T08:24:08.018Z,101077.31
2022-12-11T08:26:34.678Z,101072.53
2022-12-11T08:29:02.233Z,101073.38
2022-12-11T08:31:29.842Z,101070.84
2022-12-11T08:33:57.614Z,101066.03
2022-12-11T08:36:25.685Z,101070.22
2022-12-11T08:38:53.897Z,101065.75
2022-12-11T08:41:24.274Z,101060.59
2022-12-11T08:43:55.249Z,101068.84
2022-12-11T08:46:36.690Z,101070.53
2022-12-11T08:49:06.464Z,101061.13
2022-12-11T08:51:33.958Z,101064.66
2022-12-11T08:54:03.485Z,101064.47
2022-12-11T08:56:36.124Z,101066.59
2022-12-11T08:59:04.375Z,101068.69
2022-12-11T09:01:32.507Z,101065.16
2022-12-11T09:03:59.746Z,101067.13
2022-12-11T09:06:30.239Z,101071.72
2022-12-11T09:09:03.466Z,101066.97
2022-12-11T09:11:45.655Z,101065.16
2022-12-11T09:14:13.807Z,101066.00
2022-12-11T09:16:46.741Z,101068.38
2022-12-11T09:19:21.765Z,101065.03
2022-12-11T09:21:49.913Z,101062.81
2022-12-11T09:24:17.877Z,101067.13
2022-12-11T09:26:45.016Z,101068.00
2022-12-11T09:29:14.927Z,101063.25
2022-12-11T09:31:50.633Z,101061.53
2022-12-11T09:34:17.942Z,101047.25
2022-12-11T09:36:45.521Z,101050.19
2022-12-11T09:39:14.967Z,101045.31
2022-12-11T09:41:50.991Z,101050.47
2022-12-11T09:44:29.988Z,101054.28
2022-12-11T09:46:58.232Z,101048.22
2022-12-11T09:50:11.693Z,101046.56
2022-12-11T09:53:09.505Z,101051.75
2022-12-11T09:56:00.515Z,101050.19
2022-12-11T09:58:48.726Z,101050.91
2022-12-11T10:01:20.987Z,101042.50
2022-12-11T10:04:19.964Z,101040.81
2022-12-11T10:06:46.412Z,101042.50
2022-12-11T10:09:42.225Z,101039.97
2022-12-11T10:12:24.012Z,101032.69
2022-12-11T10:14:59.170Z,101037.19
2022-12-11T10:17:31.027Z,101034.09
2022-12-11T10:20:39.296Z,101025.09
2022-12-11T10:23:09.257Z,101014.16
2022-12-11T10:25:49.836Z,101021.16
2022-12-11T10:28:18.746Z,101028.63
2022-12-11T10:31:11.390Z,101018.53
2022-12-11T10:33:41.036Z,101015.00
2022-12-11T10:36:09.774Z,101015.69
2022-12-11T10:38:43.788Z,101012.88
2022-12-11T10:41:24.644Z,101008.38
2022-12-11T10:43:53.446Z,101007.13
2022-12-11T10:46:26.189Z,101004.16
2022-12-11T10:48:55.536Z,101005.78
2022-12-11T10:51:31.049Z,101001.16
2022-12-11T10:54:07.794Z,101001.66
2022-12-11T10:56:37.491Z,100999.56
2022-12-11T10:59:04.577Z,101008.63
2022-12-11T11:01:32.807Z,101002.06
2022-12-11T11:04:07.239Z,101008.09
2022-12-11T11:06:34.078Z,100997.31
2022-12-11T11:09:02.010Z,101006.09
2022-12-11T11:11:36.774Z,100999.03
2022-12-11T11:14:18.494Z,101010.13
2022-12-11T11:16:47.718Z,101008.78
2022-12-11T11:19:32.468Z,101007.44
2022-12-11T11:22:06.752Z,101010.28
2022-12-11T11:24:40.701Z,100999.56
2022-12-11T11:27:28.024Z,101003.25
2022-12-11T11:29:58.255Z,100996.38
2022-12-11T11:32:29.701Z,100987.81
2022-12-11T11:35:17.385Z,100987.97
2022-12-11T11:37:56.733Z,100978.91
2022-12-11T11:40:28.870Z,100974.91
2022-12-11T11:43:24.014Z,100971.38
2022-12-11T11:45:55.651Z,100968.69
2022-12-11T11:49:00.920Z,100961.47
2022-12-11T11:51:34.949Z,100955.59
2022-12-11T11:54:08.713Z,100969.53
2022-12-11T11:56:37.843Z,100966.84
2022-12-11T11:59:23.558Z,100969.22
2022-12-11T12:01:53.998Z,100973.22
2022-12-11T12:04:20.581Z,100975.06
2022-12-11T12:07:27.742Z,100971.72
2022-12-11T12:10:33.351Z,100970.69
2022-12-11T12:13:48.272Z,100972.84
2022-12-11T12:16:52.165Z,100972.34
2022-12-11T12:19:30.861Z,100970.00
2022-12-11T12:22:08.313Z,100961.25
2022-12-11T12:24:46.430Z,100952.03
2022-12-11T12:30:22.096Z,100957.53
2022-12-11T12:33:12.165Z,100955.69
2022-12-11T12:35:50.410Z,100959.88
2022-12-11T12:38:26.711Z,100963.06
2022-12-11T12:41:00.519Z,100954.84
2022-12-11T12:43:29.983Z,100959.69
2022-12-11T12:46:07.118Z,100960.00
2022-12-11T12:48:34.283Z,100963.66
2022-12-11T12:51:01.429Z,100967.66
2022-12-11T12:53:32.567Z,100972.69
2022-12-11T12:56:01.278Z,100973.72
2022-12-11T12:58:34.988Z,100963.13
2022-12-11T13:01:13.556Z,100969.78
2022-12-11T13:04:03.507Z,100965.53
2022-12-11T13:06:41.427Z,100966.03
2022-12-11T13:09:22.636Z,100964.88
2022-12-11T13:11:54.577Z,100964.91
2022-12-11T13:14:21.165Z,100962.56
2022-12-11T13:16:50.058Z,100961.50
2022-12-11T13:19:42.287Z,100960.69
2022-12-11T13:22:15.407Z,100960.53
2022-12-11T13:24:59.580Z,100968.63
2022-12-11T13:27:41.807Z,100969.06
2022-12-11T13:30:24.170Z,100971.41
2022-12-11T13:33:16.135Z,100978.16
2022-12-11T13:35:43.126Z,100975.97
2022-12-11T13:38:18.814Z,100968.25
2022-12-11T13:40:49.907Z,100979.66
2022-12-11T13:43:20.288Z,100984.50
2022-12-11T13:45:50.458Z,100984.66
2022-12-11T13:48:32.042Z,100984.41
2022-12-11T13:50:59.395Z,100981.75
2022-12-11T13:53:26.434Z,100986.97
2022-12-11T13:56:00.185Z,100981.91
2022-12-11T13:58:28.018Z,100991.47
2022-12-11T14:00:59.662Z,100993.84
2022-12-11T14:03:27.019Z,100995.81
2022-12-11T14:05:53.986Z,100996.16
2022-12-11T14:08:27.383Z,100993.78
2022-12-11T14:10:54.436Z,100990.09
2022-12-11T14:13:27.417Z,100995.28
2022-12-11T14:15:54.690Z,101005.34
2022-12-11T14:18:24.841Z,101010.59
2022-12-11T14:20:59.580Z,101006.13
2022-12-11T14:23:35.084Z,101002.22
2022-12-11T14:26:19.879Z,101004.66
2022-12-11T14:28:46.524Z,101006.28
2022-12-11T14:31:21.122Z,101011.25
2022-12-11T14:33:55.846Z,101000.50
2022-12-11T14:36:23.611Z,101002.47
2022-12-11T14:38:56.799Z,101001.41
2022-12-11T14:41:28.997Z,101006.22
2022-12-11T14:44:01.134Z,101006.69
2022-12-11T14:46:38.532Z,101008.59
2022-12-11T14:49:17.140Z,100998.66
2022-12-11T14:51:44.615Z,101003.47
2022-12-11T14:54:22.270Z,100996.88
2022-12-11T14:56:49.143Z,101002.72
2022-12-11T14:59:28.340Z,100994.56
2022-12-11T15:02:23.160Z,100998.00
2022-12-11T15:05:22.011Z,100995.94
2022-12-11T15:07:59.165Z,101003.69
2022-12-11T15:10:31.777Z,101010.19
2022-12-11T15:12:59.230Z,101014.31
2022-12-11T15:15:28.783Z,100999.25
2022-12-11T15:17:55.684Z,101001.53
2022-12-11T15:20:30.450Z,101004.94
2022-12-11T15:23:00.442Z,101004.81
2022-12-11T15:25:29.402Z,101006.97
2022-12-11T15:27:59.736Z,101000.22
2022-12-11T15:30:29.313Z,100988.84
2022-12-11T15:33:04.415Z,100995.19
2022-12-11T15:35:30.999Z,100993.78
2022-12-11T15:37:59.554Z,100995.19
2022-12-11T15:40:27.051Z,100997.34
2022-12-11T15:42:55.058Z,100997.91
2022-12-11T15:45:24.645Z,100988.22
2022-12-11T15:47:52.072Z,100988.53
2022-12-11T15:50:21.776Z,100998.66
2022-12-11T15:52:49.536Z,100999.78
2022-12-11T15:55:16.614Z,100996.53
2022-12-11T15:57:49.997Z,101001.72
2022-12-11T16:00:18.865Z,101000.03
2022-12-11T16:02:46.333Z,100993.88
2022-12-11T16:05:13.216Z,100995.00
2022-12-11T16:07:40.445Z,100993.31
2022-12-11T16:10:08.673Z,100989.38
2022-12-11T16:12:35.191Z,100993.31
2022-12-11T16:15:01.772Z,100988.84
2022-12-11T16:17:28.301Z,100986.03
2022-12-11T16:19:54.881Z,100986.19
2022-12-11T16:22:21.432Z,100985.34
2022-12-11T16:24:48.036Z,100985.94
2022-12-11T16:27:18.583Z,100991.69
2022-12-11T16:29:49.222Z,100999.81
2022-12-11T16:32:16.058Z,101007.41
2022-12-11T16:34:43.725Z,101000.81
2022-12-11T16:37:10.643Z,100993.34
2022-12-11T16:39:38.859Z,100984.06
2022-12-11T16:42:06.071Z,100985.88
2022-12-11T16:44:32.935Z,100978.59
2022-12-11T16:46:59.454Z,100982.94
2022-12-11T16:49:26.039Z,100981.25
2022-12-11T16:51:52.575Z,100990.94
2022-12-11T16:54:19.202Z,100987.56
2022-12-11T16:56:45.769Z,100992.75
2022-12-11T16:59:13.018Z,100990.09
2022-12-11T17:01:40.648Z,100983.94
2022-12-11T17:04:07.293Z,100991.94
2022-12-11T17:06:33.950Z,100994.59
2022-12-11T17:09:00.872Z,100992.22
2022-12-11T17:11:27.686Z,100988.84
2022-12-11T17:13:59.617Z,101001.06
2022-12-11T17:16:29.192Z,100997.56
2022-12-11T17:18:56.762Z,101011.03
2022-12-11T17:21:23.596Z,101002.19
2022-12-11T17:23:50.749Z,101003.16
2022-12-11T17:26:18.355Z,101010.75
2022-12-11T17:28:45.235Z,101004.03
2022-12-11T17:31:17.637Z,101006.28
2022-12-11T17:33:45.986Z,101007.97
2022-12-11T17:36:15.258Z,101000.81
2022-12-11T17:38:41.805Z,101001.09
2022-12-11T17:41:15.511Z,101004.63
2022-12-11T17:43:47.894Z,100992.28
2022-12-11T17:46:14.769Z,100996.06
2022-12-11T17:48:41.500Z,100990.00
2022-12-11T17:51:09.736Z,100992.81
2022-12-11T17:53:36.811Z,100988.31
2022-12-11T17:56:06.479Z,100990.72
2022-12-11T17:58:33.846Z,100988.31
2022-12-11T18:01:05.528Z,100994.78
2022-12-11T18:03:32.115Z,100986.66
2022-12-11T18:06:04.895Z,101000.00
2022-12-11T18:08:31.525Z,101008.25
2022-12-11T18:11:06.104Z,101002.94
2022-12-11T18:13:32.761Z,101002.09
2022-12-11T18:16:05.564Z,101010.50
2022-12-11T18:18:32.195Z,101005.47
2022-12-11T18:20:59.179Z,101005.72
2022-12-11T18:23:26.094Z,101004.06
2022-12-11T18:25:52.917Z,101016.13
2022-12-11T18:28:19.512Z,101016.84
2022-12-11T18:30:46.824Z,101015.00
2022-12-11T18:33:13.762Z,101005.06
2022-12-11T18:35:41.312Z,101015.28
2022-12-11T18:38:08.098Z,101016.41
2022-12-11T18:40:34.639Z,101017.50
2022-12-11T18:43:01.187Z,101021.44
2022-12-11T18:45:27.779Z,101023.53
2022-12-11T18:47:56.502Z,101015.44
2022-12-11T18:50:23.113Z,101008.25
2022-12-11T18:52:53.965Z,101008.25
2022-12-11T18:55:20.874Z,101019.06
2022-12-11T18:57:47.488Z,101016.97
2022-12-11T19:00:15.090Z,101011.75
2022-12-11T19:02:41.654Z,101012.63
2022-12-11T19:05:09.542Z,101023.28
2022-12-11T19:07:36.508Z,101025.66
2022-12-11T19:10:03.952Z,101024.53
2022-12-11T19:12:30.699Z,101031.56
2022-12-11T19:14:57.246Z,101025.25
2022-12-11T19:17:23.757Z,101034.38
2022-12-11T19:19:50.402Z,101032.97
2022-12-11T19:22:16.936Z,101036.03
2022-12-11T19:24:43.618Z,101029.16
2022-12-11T19:27:13.468Z,101035.06
2022-12-11T19:29:40.637Z,101033.94
2022-12-11T19:32:07.217Z,101031.69
2022-12-11T19:34:33.750Z,101034.94
2022-12-11T19:37:00.390Z,101030.88
2022-12-11T19:39:27.611Z,101036.22
2022-12-11T19:41:54.169Z,101032.13
2022-12-11T19:44:20.752Z,101028.03
2022-12-11T19:46:47.330Z,101027.63
2022-12-11T19:49:13.913Z,101029.31
2022-12-11T19:51:43.099Z,101027.09
2022-12-11T19:54:13.326Z,101031.16
2022-12-11T19:56:40.098Z,101023.56
2022-12-11T19:59:09.091Z,101026.50
2022-12-11T20:01:37.515Z,101026.19
2022-12-11T20:04:11.598Z,101020.88
2022-12-11T20:06:40.468Z,101029.59
2022-12-11T20:09:10.961Z,101024.97
2022-12-11T20:11:39.816Z,101026.50
2022-12-11T20:14:06.696Z,101020.03
2022-12-11T20:17:02.025Z,101028.47
2022-12-11T20:19:20.569Z,101028.31
2022-12-11T20:21:47.106Z,101025.91
2022-12-11T20:24:13.644Z,101018.75
2022-12-11T20:26:40.257Z,101030.25
2022-12-11T20:29:08.355Z,101016.91
2022-12-11T20:31:36.694Z,101027.88
2022-12-11T20:34:04.677Z,101020.56
2022-12-11T20:36:31.324Z,101029.28
2022-12-11T20:38:58.129Z,101016.91
2022-12-11T20:41:25.535Z,101019.44
2022-12-11T20:43:55.705Z,101027.03
2022-12-11T20:46:25.304Z,101029.28
2022-12-11T20:48:52.801Z,101029.16
2022-12-11T20:51:25.841Z,101032.25
2022-12-11T20:54:01.356Z,101027.31
2022-12-11T20:56:30.472Z,101027.84
2022-12-11T20:58:58.259Z,101029.84
2022-12-11T21:01:28.291Z,101032.38
2022-12-11T21:03:54.942Z,101032.22
2022-12-11T21:06:32.600Z,101032.38
2022-12-11T21:09:01.594Z,101030.97
2022-12-11T21:11:28.229Z,101034.31
2022-12-11T21:13:55.383Z,101026.06
2022-12-11T21:16:23.274Z,101028.41
2022-12-11T21:18:50.025Z,101028.41
2022-12-11T21:21:17.640Z,101023.09
2022-12-11T21:23:44.578Z,101029.81
2022-12-11T21:26:11.113Z,101027.84
2022-12-11T21:28:37.736Z,101022.22
2022-12-11T21:31:11.175Z,101023.63
2022-12-11T21:33:39.360Z,101017.31
2022-12-11T21:36:07.164Z,101011.69
2022-12-11T21:38:33.715Z,101012.97
2022-12-11T21:41:25.243Z,101009.63
2022-12-11T21:46:41.320Z,101022.00
2022-12-11T21:49:11.340Z,101023.38
2022-12-11T21:51:45.347Z,101027.75
2022-12-11T21:54:16.773Z,101028.41
2022-12-11T21:56:44.141Z,101032.63
2022-12-11T21:59:11.114Z,101028.25
2022-12-11T22:01:42.163Z,101039.09
2022-12-11T22:04:10.680Z,101035.59
2022-12-11T22:06:37.409Z,101043.59
2022-12-11T22:09:04.834Z,101032.78
2022-12-11T22:11:33.883Z,101039.09
2022-12-11T22:14:01.788Z,101040.78
2022-12-11T22:16:29.153Z,101044.16
2022-12-11T22:18:56.146Z,101032.94
2022-12-11T22:21:22.728Z,101045.72
2022-12-11T22:23:49.971Z,101041.38
2022-12-11T22:26:20.121Z,101043.91
2022-12-11T22:28:47.004Z,101035.34
2022-12-11T22:31:16.774Z,101040.22
2022-12-11T22:33:43.781Z,101035.44
2022-12-11T22:36:11.535Z,101040.47
2022-12-11T22:38:39.482Z,101047.09
2022-12-11T22:41:16.266Z,101039.22
2022-12-11T22:43:47.093Z,101038.53
2022-12-11T22:46:18.506Z,101036.84
2022-12-11T22:48:45.103Z,101042.72
2022-12-11T22:51:12.025Z,101044.41
2022-12-11T22:53:39.088Z,101042.44
2022-12-11T22:56:07.313Z,101045.09
2022-12-11T22:58:34.370Z,101039.91
2022-12-11T23:01:02.577Z,101047.66
2022-12-11T23:03:29.776Z,101047.50
2022-12-11T23:05:58.803Z,101032.63
2022-12-11T23:08:28.745Z,101040.38
2022-12-11T23:10:55.346Z,101044.00
2022-12-11T23:13:21.846Z,101039.50
2022-12-11T23:15:48.416Z,101032.22
2022-12-11T23:18:15.091Z,101035.72
2022-12-11T23:20:41.647Z,101037.09
2022-12-11T23:23:08.501Z,101049.91
2022-12-11T23:25:35.072Z,101043.75
2022-12-11T23:28:01.716Z,101036.00
2022-12-11T23:30:28.405Z,101036.56
2022-12-11T23:32:54.923Z,101040.66
2022-12-11T23:35:21.476Z,101038.97
2022-12-11T23:37:48.018Z,101034.31
2022-12-11T23:40:14.673Z,101038.81
2022-12-11T23:42:41.400Z,101038.41
2022-12-11T23:45:08.257Z,101038.66
2022-12-11T23:47:34.799Z,101040.06
2022-12-11T23:50:01.357Z,101044.28
2022-12-11T23:52:27.868Z,101047.50
2022-12-11T23:54:55.410Z,101035.84
2022-12-11T23:57:21.970Z,101045.81
2022-12-11T23:59:48.516Z,101050.34
